sensor_id;sensor_type;location;lat;lon;timestamp;temperature;humidity
18581;DHT22;9420;50.876;7.012;2023-08-08T00:00:53;14.89;77.93
18581;DHT22;9420;50.876;7.012;2023-08-08T00:03:20;14.64;79.99
18581;DHT22;9420;50.876;7.012;2023-08-08T00:05:47;14.43;81.51
18581;DHT22;9420;50.876;7.012;2023-08-08T00:08:15;14.48;81.01
18581;DHT22;9420;50.876;7.012;2023-08-08T00:10:41;14.37;81.71
18581;DHT22;9420;50.876;7.012;2023-08-08T00:13:08;14.34;81.30
18581;DHT22;9420;50.876;7.012;2023-08-08T00:15:34;14.32;81.93
18581;DHT22;9420;50.876;7.012;2023-08-08T00:18:01;14.12;82.91
18581;DHT22;9420;50.876;7.012;2023-08-08T00:20:28;14.32;80.73
18581;DHT22;9420;50.876;7.012;2023-08-08T00:22:55;14.33;81.67
18581;DHT22;9420;50.876;7.012;2023-08-08T00:25:23;14.23;81.00
18581;DHT22;9420;50.876;7.012;2023-08-08T00:27:50;14.36;78.97
18581;DHT22;9420;50.876;7.012;2023-08-08T00:30:17;14.47;78.40
18581;DHT22;9420;50.876;7.012;2023-08-08T00:32:43;14.51;77.33
18581;DHT22;9420;50.876;7.012;2023-08-08T00:35:10;14.48;78.09
18581;DHT22;9420;50.876;7.012;2023-08-08T00:37:37;14.54;78.10
18581;DHT22;9420;50.876;7.012;2023-08-08T00:40:04;14.47;77.38
18581;DHT22;9420;50.876;7.012;2023-08-08T00:42:33;14.48;77.15
18581;DHT22;9420;50.876;7.012;2023-08-08T00:44:59;14.34;78.66
18581;DHT22;9420;50.876;7.012;2023-08-08T00:47:30;14.23;78.48
18581;DHT22;9420;50.876;7.012;2023-08-08T00:49:57;14.27;78.18
18581;DHT22;9420;50.876;7.012;2023-08-08T00:52:23;14.33;77.06
18581;DHT22;9420;50.876;7.012;2023-08-08T00:54:50;14.38;76.56
18581;DHT22;9420;50.876;7.012;2023-08-08T00:57:18;14.20;77.83
18581;DHT22;9420;50.876;7.012;2023-08-08T00:59:46;14.23;77.56
18581;DHT22;9420;50.876;7.012;2023-08-08T01:02:13;14.19;77.80
18581;DHT22;9420;50.876;7.012;2023-08-08T01:04:40;14.10;77.98
18581;DHT22;9420;50.876;7.012;2023-08-08T01:07:12;13.96;78.61
18581;DHT22;9420;50.876;7.012;2023-08-08T01:09:46;13.96;78.73
18581;DHT22;9420;50.876;7.012;2023-08-08T01:12:15;13.93;78.73
18581;DHT22;9420;50.876;7.012;2023-08-08T01:14:43;13.72;80.40
18581;DHT22;9420;50.876;7.012;2023-08-08T01:17:12;13.69;80.24
18581;DHT22;9420;50.876;7.012;2023-08-08T01:19:39;13.68;80.50
18581;DHT22;9420;50.876;7.012;2023-08-08T01:22:14;13.72;79.61
18581;DHT22;9420;50.876;7.012;2023-08-08T01:24:44;13.65;80.03
18581;DHT22;9420;50.876;7.012;2023-08-08T01:27:11;13.59;80.18
18581;DHT22;9420;50.876;7.012;2023-08-08T01:29:37;13.59;80.42
18581;DHT22;9420;50.876;7.012;2023-08-08T01:32:05;13.66;79.71
18581;DHT22;9420;50.876;7.012;2023-08-08T01:34:34;13.54;80.64
18581;DHT22;9420;50.876;7.012;2023-08-08T01:37:07;13.61;80.00
18581;DHT22;9420;50.876;7.012;2023-08-08T01:39:37;13.53;80.14
18581;DHT22;9420;50.876;7.012;2023-08-08T01:42:07;13.43;80.94
18581;DHT22;9420;50.876;7.012;2023-08-08T01:44:36;13.57;80.07
18581;DHT22;9420;50.876;7.012;2023-08-08T01:47:05;13.54;80.07
18581;DHT22;9420;50.876;7.012;2023-08-08T01:49:33;13.41;80.84
18581;DHT22;9420;50.876;7.012;2023-08-08T01:51:59;13.33;81.20
18581;DHT22;9420;50.876;7.012;2023-08-08T01:54:27;13.36;80.94
18581;DHT22;9420;50.876;7.012;2023-08-08T01:56:54;13.36;80.70
18581;DHT22;9420;50.876;7.012;2023-08-08T01:59:22;13.26;81.63
18581;DHT22;9420;50.876;7.012;2023-08-08T02:01:49;13.23;81.33
18581;DHT22;9420;50.876;7.012;2023-08-08T02:04:15;13.21;81.49
18581;DHT22;9420;50.876;7.012;2023-08-08T02:06:42;13.24;81.16
18581;DHT22;9420;50.876;7.012;2023-08-08T02:09:09;13.28;81.23
18581;DHT22;9420;50.876;7.012;2023-08-08T02:11:35;13.23;81.33
18581;DHT22;9420;50.876;7.012;2023-08-08T02:14:02;13.24;81.34
18581;DHT22;9420;50.876;7.012;2023-08-08T02:16:30;13.07;82.15
18581;DHT22;9420;50.876;7.012;2023-08-08T02:18:57;13.13;81.77
18581;DHT22;9420;50.876;7.012;2023-08-08T02:21:23;13.13;81.78
18581;DHT22;9420;50.876;7.012;2023-08-08T02:23:50;13.07;82.12
18581;DHT22;9420;50.876;7.012;2023-08-08T02:26:16;13.06;82.28
18581;DHT22;9420;50.876;7.012;2023-08-08T02:28:43;13.08;82.15
18581;DHT22;9420;50.876;7.012;2023-08-08T02:31:10;13.03;82.42
18581;DHT22;9420;50.876;7.012;2023-08-08T02:33:38;13.04;82.53
18581;DHT22;9420;50.876;7.012;2023-08-08T02:36:04;13.08;82.39
18581;DHT22;9420;50.876;7.012;2023-08-08T02:38:31;13.11;82.63
18581;DHT22;9420;50.876;7.012;2023-08-08T02:40:58;13.03;82.72
18581;DHT22;9420;50.876;7.012;2023-08-08T02:43:25;13.08;82.62
18581;DHT22;9420;50.876;7.012;2023-08-08T02:45:51;12.97;83.07
18581;DHT22;9420;50.876;7.012;2023-08-08T02:48:18;13.00;83.07
18581;DHT22;9420;50.876;7.012;2023-08-08T02:50:46;13.00;83.06
18581;DHT22;9420;50.876;7.012;2023-08-08T02:53:13;12.96;83.24
18581;DHT22;9420;50.876;7.012;2023-08-08T02:55:39;12.99;83.08
18581;DHT22;9420;50.876;7.012;2023-08-08T02:58:06;13.10;82.45
18581;DHT22;9420;50.876;7.012;2023-08-08T03:00:33;13.18;81.91
18581;DHT22;9420;50.876;7.012;2023-08-08T03:02:59;13.16;82.18
18581;DHT22;9420;50.876;7.012;2023-08-08T03:05:26;13.23;81.80
18581;DHT22;9420;50.876;7.012;2023-08-08T03:07:54;13.30;81.23
18581;DHT22;9420;50.876;7.012;2023-08-08T03:10:21;13.36;80.77
18581;DHT22;9420;50.876;7.012;2023-08-08T03:12:47;13.37;80.83
18581;DHT22;9420;50.876;7.012;2023-08-08T03:15:14;13.41;80.03
18581;DHT22;9420;50.876;7.012;2023-08-08T03:17:40;13.41;80.10
18581;DHT22;9420;50.876;7.012;2023-08-08T03:20:08;13.58;79.09
18581;DHT22;9420;50.876;7.012;2023-08-08T03:22:36;13.47;79.77
18581;DHT22;9420;50.876;7.012;2023-08-08T03:25:05;13.45;79.50
18581;DHT22;9420;50.876;7.012;2023-08-08T03:27:31;13.34;79.95
18581;DHT22;9420;50.876;7.012;2023-08-08T03:29:58;13.30;80.36
18581;DHT22;9420;50.876;7.012;2023-08-08T03:32:25;13.36;79.99
18581;DHT22;9420;50.876;7.012;2023-08-08T03:34:54;13.30;79.69
18581;DHT22;9420;50.876;7.012;2023-08-08T03:37:21;13.26;79.82
18581;DHT22;9420;50.876;7.012;2023-08-08T03:39:47;13.31;79.57
18581;DHT22;9420;50.876;7.012;2023-08-08T03:42:15;13.33;79.37
18581;DHT22;9420;50.876;7.012;2023-08-08T03:44:42;13.20;80.10
18581;DHT22;9420;50.876;7.012;2023-08-08T03:47:10;13.10;80.44
18581;DHT22;9420;50.876;7.012;2023-08-08T03:49:37;13.11;80.37
18581;DHT22;9420;50.876;7.012;2023-08-08T03:52:04;12.95;80.99
18581;DHT22;9420;50.876;7.012;2023-08-08T03:54:31;12.90;81.39
18581;DHT22;9420;50.876;7.012;2023-08-08T03:56:57;12.82;81.95
18581;DHT22;9420;50.876;7.012;2023-08-08T03:59:26;12.89;81.22
18581;DHT22;9420;50.876;7.012;2023-08-08T04:01:52;12.89;81.34
18581;DHT22;9420;50.876;7.012;2023-08-08T04:04:19;12.79;81.99
18581;DHT22;9420;50.876;7.012;2023-08-08T04:06:46;12.85;81.54
18581;DHT22;9420;50.876;7.012;2023-08-08T04:09:12;12.75;81.92
18581;DHT22;9420;50.876;7.012;2023-08-08T04:11:39;12.83;81.59
18581;DHT22;9420;50.876;7.012;2023-08-08T04:14:06;12.85;81.31
18581;DHT22;9420;50.876;7.012;2023-08-08T04:16:34;12.87;81.56
18581;DHT22;9420;50.876;7.012;2023-08-08T04:19:01;12.89;80.98
18581;DHT22;9420;50.876;7.012;2023-08-08T04:21:28;12.95;80.77
18581;DHT22;9420;50.876;7.012;2023-08-08T04:23:57;12.97;80.94
18581;DHT22;9420;50.876;7.012;2023-08-08T04:26:24;13.02;80.42
18581;DHT22;9420;50.876;7.012;2023-08-08T04:28:51;13.08;80.36
18581;DHT22;9420;50.876;7.012;2023-08-08T04:31:18;13.06;80.50
18581;DHT22;9420;50.876;7.012;2023-08-08T04:33:46;13.10;80.39
18581;DHT22;9420;50.876;7.012;2023-08-08T04:36:12;13.14;80.36
18581;DHT22;9420;50.876;7.012;2023-08-08T04:38:39;13.16;80.37
18581;DHT22;9420;50.876;7.012;2023-08-08T04:41:06;13.08;81.05
18581;DHT22;9420;50.876;7.012;2023-08-08T04:43:32;13.16;80.60
18581;DHT22;9420;50.876;7.012;2023-08-08T04:45:59;13.16;80.56
18581;DHT22;9420;50.876;7.012;2023-08-08T04:48:26;13.07;81.13
18581;DHT22;9420;50.876;7.012;2023-08-08T04:50:54;13.21;80.81
18581;DHT22;9420;50.876;7.012;2023-08-08T04:53:22;13.23;81.13
18581;DHT22;9420;50.876;7.012;2023-08-08T04:55:48;13.26;81.08
18581;DHT22;9420;50.876;7.012;2023-08-08T04:58:15;13.31;81.04
18581;DHT22;9420;50.876;7.012;2023-08-08T05:00:42;13.34;81.03
18581;DHT22;9420;50.876;7.012;2023-08-08T05:03:08;13.34;81.36
18581;DHT22;9420;50.876;7.012;2023-08-08T05:05:35;13.30;81.92
18581;DHT22;9420;50.876;7.012;2023-08-08T05:08:03;13.31;81.71
18581;DHT22;9420;50.876;7.012;2023-08-08T05:10:30;13.40;81.48
18581;DHT22;9420;50.876;7.012;2023-08-08T05:12:57;13.40;81.81
18581;DHT22;9420;50.876;7.012;2023-08-08T05:15:24;13.51;81.97
18581;DHT22;9420;50.876;7.012;2023-08-08T05:17:51;13.71;81.12
18581;DHT22;9420;50.876;7.012;2023-08-08T05:20:20;13.79;81.46
18581;DHT22;9420;50.876;7.012;2023-08-08T05:22:46;13.90;80.87
18581;DHT22;9420;50.876;7.012;2023-08-08T05:25:15;14.03;80.44
18581;DHT22;9420;50.876;7.012;2023-08-08T05:27:41;14.03;80.92
18581;DHT22;9420;50.876;7.012;2023-08-08T05:30:09;14.12;80.73
18581;DHT22;9420;50.876;7.012;2023-08-08T05:32:37;14.17;80.77
18581;DHT22;9420;50.876;7.012;2023-08-08T05:35:06;14.14;81.31
18581;DHT22;9420;50.876;7.012;2023-08-08T05:37:33;14.23;80.65
18581;DHT22;9420;50.876;7.012;2023-08-08T05:40:00;14.30;80.47
18581;DHT22;9420;50.876;7.012;2023-08-08T05:42:28;14.38;80.59
18581;DHT22;9420;50.876;7.012;2023-08-08T05:44:57;14.43;80.50
18581;DHT22;9420;50.876;7.012;2023-08-08T05:47:24;14.51;80.73
18581;DHT22;9420;50.876;7.012;2023-08-08T05:49:51;14.53;80.79
18581;DHT22;9420;50.876;7.012;2023-08-08T05:52:17;14.60;80.39
18581;DHT22;9420;50.876;7.012;2023-08-08T05:54:44;14.61;80.54
18581;DHT22;9420;50.876;7.012;2023-08-08T05:57:10;14.75;80.58
18581;DHT22;9420;50.876;7.012;2023-08-08T05:59:40;14.84;80.06
18581;DHT22;9420;50.876;7.012;2023-08-08T06:02:10;14.96;80.00
18581;DHT22;9420;50.876;7.012;2023-08-08T06:04:37;15.09;79.91
18581;DHT22;9420;50.876;7.012;2023-08-08T06:07:04;15.13;79.28
18581;DHT22;9420;50.876;7.012;2023-08-08T06:09:30;15.16;80.09
18581;DHT22;9420;50.876;7.012;2023-08-08T06:11:58;15.29;79.40
18581;DHT22;9420;50.876;7.012;2023-08-08T06:14:24;15.33;79.45
18581;DHT22;9420;50.876;7.012;2023-08-08T06:16:53;15.36;79.12
18581;DHT22;9420;50.876;7.012;2023-08-08T06:19:19;15.42;79.01
18581;DHT22;9420;50.876;7.012;2023-08-08T06:21:46;15.57;78.73
18581;DHT22;9420;50.876;7.012;2023-08-08T06:24:14;15.56;78.37
18581;DHT22;9420;50.876;7.012;2023-08-08T06:26:40;15.49;79.14
18581;DHT22;9420;50.876;7.012;2023-08-08T06:29:07;15.61;78.88
18581;DHT22;9420;50.876;7.012;2023-08-08T06:31:33;15.73;78.90
18581;DHT22;9420;50.876;7.012;2023-08-08T06:34:02;15.73;78.68
18581;DHT22;9420;50.876;7.012;2023-08-08T06:36:28;15.76;78.84
18581;DHT22;9420;50.876;7.012;2023-08-08T06:38:55;15.81;78.07
18581;DHT22;9420;50.876;7.012;2023-08-08T06:41:21;16.08;77.60
18581;DHT22;9420;50.876;7.012;2023-08-08T06:43:48;16.04;77.58
18581;DHT22;9420;50.876;7.012;2023-08-08T06:46:15;16.08;77.33
18581;DHT22;9420;50.876;7.012;2023-08-08T06:48:42;15.96;77.15
18581;DHT22;9420;50.876;7.012;2023-08-08T06:51:11;15.91;77.19
18581;DHT22;9420;50.876;7.012;2023-08-08T06:53:38;15.69;78.11
18581;DHT22;9420;50.876;7.012;2023-08-08T06:56:04;15.69;78.08
18581;DHT22;9420;50.876;7.012;2023-08-08T06:58:31;15.93;77.41
18581;DHT22;9420;50.876;7.012;2023-08-08T07:00:57;16.22;76.16
18581;DHT22;9420;50.876;7.012;2023-08-08T07:03:24;16.42;75.59
18581;DHT22;9420;50.876;7.012;2023-08-08T07:05:51;16.42;75.52
18581;DHT22;9420;50.876;7.012;2023-08-08T07:08:19;16.52;75.68
18581;DHT22;9420;50.876;7.012;2023-08-08T07:10:46;16.44;75.32
18581;DHT22;9420;50.876;7.012;2023-08-08T07:13:13;16.46;75.33
18581;DHT22;9420;50.876;7.012;2023-08-08T07:15:40;16.62;75.18
18581;DHT22;9420;50.876;7.012;2023-08-08T07:18:07;16.81;74.58
18581;DHT22;9420;50.876;7.012;2023-08-08T07:20:34;16.87;73.77
18581;DHT22;9420;50.876;7.012;2023-08-08T07:23:00;16.72;74.80
18581;DHT22;9420;50.876;7.012;2023-08-08T07:25:28;16.75;74.28
18581;DHT22;9420;50.876;7.012;2023-08-08T07:27:55;16.81;73.84
18581;DHT22;9420;50.876;7.012;2023-08-08T07:30:21;16.79;74.38
18581;DHT22;9420;50.876;7.012;2023-08-08T07:32:48;16.88;75.57
18581;DHT22;9420;50.876;7.012;2023-08-08T07:35:15;17.11;73.96
18581;DHT22;9420;50.876;7.012;2023-08-08T07:37:41;16.90;74.35
18581;DHT22;9420;50.876;7.012;2023-08-08T07:40:18;16.70;74.45
18581;DHT22;9420;50.876;7.012;2023-08-08T07:42:47;16.63;74.88
18581;DHT22;9420;50.876;7.012;2023-08-08T07:45:14;16.80;74.34
18581;DHT22;9420;50.876;7.012;2023-08-08T07:47:41;16.75;74.23
18581;DHT22;9420;50.876;7.012;2023-08-08T07:50:08;16.70;74.44
18581;DHT22;9420;50.876;7.012;2023-08-08T07:52:35;16.90;74.09
18581;DHT22;9420;50.876;7.012;2023-08-08T07:55:02;17.21;73.19
18581;DHT22;9420;50.876;7.012;2023-08-08T07:57:28;17.28;73.56
18581;DHT22;9420;50.876;7.012;2023-08-08T07:59:57;17.31;73.88
18581;DHT22;9420;50.876;7.012;2023-08-08T08:02:23;16.97;73.93
18581;DHT22;9420;50.876;7.012;2023-08-08T08:04:50;17.06;73.51
18581;DHT22;9420;50.876;7.012;2023-08-08T08:07:17;17.23;73.09
18581;DHT22;9420;50.876;7.012;2023-08-08T08:09:43;17.32;73.48
18581;DHT22;9420;50.876;7.012;2023-08-08T08:12:10;17.41;73.10
18581;DHT22;9420;50.876;7.012;2023-08-08T08:14:37;17.39;73.23
18581;DHT22;9420;50.876;7.012;2023-08-08T08:17:05;17.58;72.07
18581;DHT22;9420;50.876;7.012;2023-08-08T08:19:32;17.23;72.61
18581;DHT22;9420;50.876;7.012;2023-08-08T08:21:58;17.44;72.35
18581;DHT22;9420;50.876;7.012;2023-08-08T08:24:26;17.90;70.98
18581;DHT22;9420;50.876;7.012;2023-08-08T08:26:53;17.89;71.10
18581;DHT22;9420;50.876;7.012;2023-08-08T08:29:20;17.56;71.49
18581;DHT22;9420;50.876;7.012;2023-08-08T08:31:46;17.42;71.99
18581;DHT22;9420;50.876;7.012;2023-08-08T08:34:15;17.36;72.05
18581;DHT22;9420;50.876;7.012;2023-08-08T08:36:41;17.56;72.43
18581;DHT22;9420;50.876;7.012;2023-08-08T08:39:08;18.06;70.76
18581;DHT22;9420;50.876;7.012;2023-08-08T08:41:35;18.29;70.01
18581;DHT22;9420;50.876;7.012;2023-08-08T08:44:03;18.59;68.48
18581;DHT22;9420;50.876;7.012;2023-08-08T08:46:35;18.43;68.45
18581;DHT22;9420;50.876;7.012;2023-08-08T08:49:05;18.31;69.04
18581;DHT22;9420;50.876;7.012;2023-08-08T08:51:35;18.78;67.60
18581;DHT22;9420;50.876;7.012;2023-08-08T08:54:02;18.68;67.60
18581;DHT22;9420;50.876;7.012;2023-08-08T08:56:30;18.38;66.70
18581;DHT22;9420;50.876;7.012;2023-08-08T08:58:58;18.09;67.82
18581;DHT22;9420;50.876;7.012;2023-08-08T09:01:25;18.13;67.99
18581;DHT22;9420;50.876;7.012;2023-08-08T09:03:52;17.99;69.40
18581;DHT22;9420;50.876;7.012;2023-08-08T09:06:19;17.93;68.70
18581;DHT22;9420;50.876;7.012;2023-08-08T09:08:48;18.06;67.43
18581;DHT22;9420;50.876;7.012;2023-08-08T09:11:17;18.18;67.28
18581;DHT22;9420;50.876;7.012;2023-08-08T09:13:44;18.20;67.91
18581;DHT22;9420;50.876;7.012;2023-08-08T09:16:13;18.43;66.83
18581;DHT22;9420;50.876;7.012;2023-08-08T09:18:39;18.43;67.30
18581;DHT22;9420;50.876;7.012;2023-08-08T09:21:08;18.30;66.99
18581;DHT22;9420;50.876;7.012;2023-08-08T09:23:36;18.29;67.10
18581;DHT22;9420;50.876;7.012;2023-08-08T09:26:05;18.44;67.41
18581;DHT22;9420;50.876;7.012;2023-08-08T09:28:32;18.41;66.75
18581;DHT22;9420;50.876;7.012;2023-08-08T09:30:58;18.23;65.67
18581;DHT22;9420;50.876;7.012;2023-08-08T09:33:28;18.36;65.73
18581;DHT22;9420;50.876;7.012;2023-08-08T09:35:55;18.36;66.27
18581;DHT22;9420;50.876;7.012;2023-08-08T09:38:22;18.51;64.98
18581;DHT22;9420;50.876;7.012;2023-08-08T09:40:49;18.38;64.53
18581;DHT22;9420;50.876;7.012;2023-08-08T09:43:18;18.43;64.67
18581;DHT22;9420;50.876;7.012;2023-08-08T09:45:47;18.59;64.17
18581;DHT22;9420;50.876;7.012;2023-08-08T09:48:14;18.98;63.96
18581;DHT22;9420;50.876;7.012;2023-08-08T09:50:43;19.09;62.79
18581;DHT22;9420;50.876;7.012;2023-08-08T09:53:11;19.10;63.33
18581;DHT22;9420;50.876;7.012;2023-08-08T09:55:38;19.12;63.97
18581;DHT22;9420;50.876;7.012;2023-08-08T09:58:05;19.19;63.17
18581;DHT22;9420;50.876;7.012;2023-08-08T10:00:35;19.51;62.62
18581;DHT22;9420;50.876;7.012;2023-08-08T10:03:02;19.46;61.73
18581;DHT22;9420;50.876;7.012;2023-08-08T10:05:30;19.46;61.61
18581;DHT22;9420;50.876;7.012;2023-08-08T10:07:57;19.49;61.23
18581;DHT22;9420;50.876;7.012;2023-08-08T10:10:24;19.60;61.07
18581;DHT22;9420;50.876;7.012;2023-08-08T10:12:52;19.44;62.01
18581;DHT22;9420;50.876;7.012;2023-08-08T10:15:18;19.56;60.92
18581;DHT22;9420;50.876;7.012;2023-08-08T10:17:53;19.84;60.81
18581;DHT22;9420;50.876;7.012;2023-08-08T10:20:20;20.14;59.10
18581;DHT22;9420;50.876;7.012;2023-08-08T10:22:47;19.82;59.02
18581;DHT22;9420;50.876;7.012;2023-08-08T10:25:18;19.85;60.64
18581;DHT22;9420;50.876;7.012;2023-08-08T10:27:45;19.70;60.13
18581;DHT22;9420;50.876;7.012;2023-08-08T10:30:12;19.84;60.13
18581;DHT22;9420;50.876;7.012;2023-08-08T10:32:40;20.09;59.84
18581;DHT22;9420;50.876;7.012;2023-08-08T10:35:09;20.80;57.86
18581;DHT22;9420;50.876;7.012;2023-08-08T10:37:38;20.79;57.10
18581;DHT22;9420;50.876;7.012;2023-08-08T10:40:06;20.52;56.94
18581;DHT22;9420;50.876;7.012;2023-08-08T10:42:41;20.36;58.00
18581;DHT22;9420;50.876;7.012;2023-08-08T10:45:10;20.22;58.97
18581;DHT22;9420;50.876;7.012;2023-08-08T10:47:39;20.25;58.20
18581;DHT22;9420;50.876;7.012;2023-08-08T10:50:07;19.92;57.81
18581;DHT22;9420;50.876;7.012;2023-08-08T10:55:36;20.21;57.44
18581;DHT22;9420;50.876;7.012;2023-08-08T10:58:05;20.25;56.88
18581;DHT22;9420;50.876;7.012;2023-08-08T11:00:33;20.26;58.12
18581;DHT22;9420;50.876;7.012;2023-08-08T11:03:00;20.09;58.13
18581;DHT22;9420;50.876;7.012;2023-08-08T11:05:29;19.99;58.62
18581;DHT22;9420;50.876;7.012;2023-08-08T11:07:58;20.04;58.26
18581;DHT22;9420;50.876;7.012;2023-08-08T11:10:25;20.04;57.79
18581;DHT22;9420;50.876;7.012;2023-08-08T11:12:58;20.08;58.09
18581;DHT22;9420;50.876;7.012;2023-08-08T11:15:25;19.99;58.96
18581;DHT22;9420;50.876;7.012;2023-08-08T11:17:53;19.92;58.72
18581;DHT22;9420;50.876;7.012;2023-08-08T11:20:20;19.98;59.27
18581;DHT22;9420;50.876;7.012;2023-08-08T11:22:51;19.88;59.48
18581;DHT22;9420;50.876;7.012;2023-08-08T11:25:21;20.05;59.35
18581;DHT22;9420;50.876;7.012;2023-08-08T11:27:51;20.18;58.85
18581;DHT22;9420;50.876;7.012;2023-08-08T11:30:19;20.29;58.78
18581;DHT22;9420;50.876;7.012;2023-08-08T11:32:47;20.21;57.42
18581;DHT22;9420;50.876;7.012;2023-08-08T11:35:16;20.08;58.06
18581;DHT22;9420;50.876;7.012;2023-08-08T11:37:44;20.19;57.69
18581;DHT22;9420;50.876;7.012;2023-08-08T11:40:14;20.57;56.71
18581;DHT22;9420;50.876;7.012;2023-08-08T11:42:42;20.43;57.06
18581;DHT22;9420;50.876;7.012;2023-08-08T11:45:11;20.83;56.75
18581;DHT22;9420;50.876;7.012;2023-08-08T11:47:38;20.60;54.96
18581;DHT22;9420;50.876;7.012;2023-08-08T11:50:06;21.58;53.32
18581;DHT22;9420;50.876;7.012;2023-08-08T11:52:34;21.32;53.96
18581;DHT22;9420;50.876;7.012;2023-08-08T11:55:02;21.32;53.74
18581;DHT22;9420;50.876;7.012;2023-08-08T11:57:31;21.18;52.53
18581;DHT22;9420;50.876;7.012;2023-08-08T11:59:59;20.94;54.45
18581;DHT22;9420;50.876;7.012;2023-08-08T12:02:27;20.92;54.78
18581;DHT22;9420;50.876;7.012;2023-08-08T12:04:54;20.43;55.09
18581;DHT22;9420;50.876;7.012;2023-08-08T12:07:22;20.05;56.29
18581;DHT22;9420;50.876;7.012;2023-08-08T12:09:49;20.12;56.49
18581;DHT22;9420;50.876;7.012;2023-08-08T12:12:19;20.25;55.07
18581;DHT22;9420;50.876;7.012;2023-08-08T12:14:47;20.22;55.08
18581;DHT22;9420;50.876;7.012;2023-08-08T12:17:15;20.84;55.90
18581;DHT22;9420;50.876;7.012;2023-08-08T12:19:45;20.95;53.75
18581;DHT22;9420;50.876;7.012;2023-08-08T12:22:13;21.01;53.39
18581;DHT22;9420;50.876;7.012;2023-08-08T12:24:39;20.70;53.26
18581;DHT22;9420;50.876;7.012;2023-08-08T12:27:06;21.65;51.70
18581;DHT22;9420;50.876;7.012;2023-08-08T12:29:33;21.43;53.30
18581;DHT22;9420;50.876;7.012;2023-08-08T12:32:00;21.18;54.95
18581;DHT22;9420;50.876;7.012;2023-08-08T12:34:29;20.81;55.09
18581;DHT22;9420;50.876;7.012;2023-08-08T12:36:56;20.49;54.13
18581;DHT22;9420;50.876;7.012;2023-08-08T12:39:22;20.26;54.72
18581;DHT22;9420;50.876;7.012;2023-08-08T12:41:49;20.16;54.59
18581;DHT22;9420;50.876;7.012;2023-08-08T12:44:17;20.36;55.24
18581;DHT22;9420;50.876;7.012;2023-08-08T12:46:43;20.42;54.24
18581;DHT22;9420;50.876;7.012;2023-08-08T12:49:10;20.60;54.91
18581;DHT22;9420;50.876;7.012;2023-08-08T12:51:38;21.38;52.73
18581;DHT22;9420;50.876;7.012;2023-08-08T12:54:06;22.95;49.74
18581;DHT22;9420;50.876;7.012;2023-08-08T12:56:32;22.28;52.27
18581;DHT22;9420;50.876;7.012;2023-08-08T12:58:59;23.50;48.11
18581;DHT22;9420;50.876;7.012;2023-08-08T13:01:28;24.12;46.99
18581;DHT22;9420;50.876;7.012;2023-08-08T13:03:55;23.09;48.56
18581;DHT22;9420;50.876;7.012;2023-08-08T13:06:21;21.90;50.33
18581;DHT22;9420;50.876;7.012;2023-08-08T13:08:49;20.64;53.30
18581;DHT22;9420;50.876;7.012;2023-08-08T13:11:16;20.22;55.81
18581;DHT22;9420;50.876;7.012;2023-08-08T13:13:42;19.81;55.54
18581;DHT22;9420;50.876;7.012;2023-08-08T13:16:09;19.79;56.43
18581;DHT22;9420;50.876;7.012;2023-08-08T13:18:36;19.71;56.56
18581;DHT22;9420;50.876;7.012;2023-08-08T13:21:03;19.60;56.49
18581;DHT22;9420;50.876;7.012;2023-08-08T13:23:29;19.57;56.95
18581;DHT22;9420;50.876;7.012;2023-08-08T13:25:58;19.58;57.46
18581;DHT22;9420;50.876;7.012;2023-08-08T13:28:25;19.50;57.33
18581;DHT22;9420;50.876;7.012;2023-08-08T13:30:52;19.58;57.11
18581;DHT22;9420;50.876;7.012;2023-08-08T13:33:19;19.92;56.77
18581;DHT22;9420;50.876;7.012;2023-08-08T13:35:46;19.99;57.73
18581;DHT22;9420;50.876;7.012;2023-08-08T13:38:16;19.96;56.36
18581;DHT22;9420;50.876;7.012;2023-08-08T13:40:44;20.04;57.46
18581;DHT22;9420;50.876;7.012;2023-08-08T13:43:12;19.77;57.46
18581;DHT22;9420;50.876;7.012;2023-08-08T13:45:39;19.53;58.73
18581;DHT22;9420;50.876;7.012;2023-08-08T13:48:05;19.58;58.24
18581;DHT22;9420;50.876;7.012;2023-08-08T13:50:33;19.70;58.76
18581;DHT22;9420;50.876;7.012;2023-08-08T13:52:59;20.46;55.87
18581;DHT22;9420;50.876;7.012;2023-08-08T14:03:42;19.82;58.60
18581;DHT22;9420;50.876;7.012;2023-08-08T14:06:10;19.58;59.37
18581;DHT22;9420;50.876;7.012;2023-08-08T14:27:20;19.56;59.42
18581;DHT22;9420;50.876;7.012;2023-08-08T14:29:47;19.44;59.96
18581;DHT22;9420;50.876;7.012;2023-08-08T14:32:14;19.65;60.62
18581;DHT22;9420;50.876;7.012;2023-08-08T14:34:41;20.42;57.28
18581;DHT22;9420;50.876;7.012;2023-08-08T14:37:07;20.57;57.81
18581;DHT22;9420;50.876;7.012;2023-08-08T14:39:34;20.44;58.15
18581;DHT22;9420;50.876;7.012;2023-08-08T14:42:01;21.50;55.41
18581;DHT22;9420;50.876;7.012;2023-08-08T14:44:29;21.34;56.32
18581;DHT22;9420;50.876;7.012;2023-08-08T14:46:56;22.88;52.00
18581;DHT22;9420;50.876;7.012;2023-08-08T14:49:22;24.06;49.96
18581;DHT22;9420;50.876;7.012;2023-08-08T14:51:51;24.33;48.89
18581;DHT22;9420;50.876;7.012;2023-08-08T14:54:17;23.46;50.51
18581;DHT22;9420;50.876;7.012;2023-08-08T14:56:44;22.21;53.88
18581;DHT22;9420;50.876;7.012;2023-08-08T14:59:10;23.99;50.45
18581;DHT22;9420;50.876;7.012;2023-08-08T15:01:38;21.94;54.86
18581;DHT22;9420;50.876;7.012;2023-08-08T15:04:05;21.46;56.12
18581;DHT22;9420;50.876;7.012;2023-08-08T15:06:32;21.49;56.14
18581;DHT22;9420;50.876;7.012;2023-08-08T15:08:58;23.37;52.95
18581;DHT22;9420;50.876;7.012;2023-08-08T15:11:26;21.45;56.66
18581;DHT22;9420;50.876;7.012;2023-08-08T15:13:52;20.40;58.32
18581;DHT22;9420;50.876;7.012;2023-08-08T15:16:19;20.39;59.64
18581;DHT22;9420;50.876;7.012;2023-08-08T15:18:47;22.14;54.67
18581;DHT22;9420;50.876;7.012;2023-08-08T15:21:14;20.95;57.66
18581;DHT22;9420;50.876;7.012;2023-08-08T15:23:44;20.29;60.56
18581;DHT22;9420;50.876;7.012;2023-08-08T15:26:11;20.26;60.19
18581;DHT22;9420;50.876;7.012;2023-08-08T15:28:38;20.30;60.05
18581;DHT22;9420;50.876;7.012;2023-08-08T15:31:04;21.41;57.65
18581;DHT22;9420;50.876;7.012;2023-08-08T15:33:31;23.79;50.88
18581;DHT22;9420;50.876;7.012;2023-08-08T15:35:59;24.36;50.00
18581;DHT22;9420;50.876;7.012;2023-08-08T15:38:26;21.39;56.41
18581;DHT22;9420;50.876;7.012;2023-08-08T15:40:53;22.07;54.59
18581;DHT22;9420;50.876;7.012;2023-08-08T15:43:20;21.22;56.71
18581;DHT22;9420;50.876;7.012;2023-08-08T15:45:46;23.55;52.27
18581;DHT22;9420;50.876;7.012;2023-08-08T15:48:14;24.32;50.94
18581;DHT22;9420;50.876;7.012;2023-08-08T15:50:41;21.87;55.37
18581;DHT22;9420;50.876;7.012;2023-08-08T15:53:09;22.75;54.40
18581;DHT22;9420;50.876;7.012;2023-08-08T15:55:36;23.98;51.67
18581;DHT22;9420;50.876;7.012;2023-08-08T15:58:03;23.36;53.23
18581;DHT22;9420;50.876;7.012;2023-08-08T16:00:30;23.65;52.69
18581;DHT22;9420;50.876;7.012;2023-08-08T16:02:56;23.54;53.29
18581;DHT22;9420;50.876;7.012;2023-08-08T16:05:24;23.71;54.04
18581;DHT22;9420;50.876;7.012;2023-08-08T16:07:53;22.55;55.18
18581;DHT22;9420;50.876;7.012;2023-08-08T16:10:22;21.85;56.54
18581;DHT22;9420;50.876;7.012;2023-08-08T16:12:49;20.97;59.43
18581;DHT22;9420;50.876;7.012;2023-08-08T16:15:15;20.94;59.64